createdAt,value
2023-03-08T00:01:42.250Z,1.23
2023-03-08T00:06:43.688Z,1.13
2023-03-08T00:11:45.068Z,1.85
2023-03-08T00:16:46.425Z,1.42
2023-03-08T00:21:47.842Z,1.00
2023-03-08T00:26:49.203Z,1.83
2023-03-08T00:31:50.724Z,1.30
2023-03-08T00:36:52.277Z,1.15
2023-03-08T00:41:53.693Z,1.83
2023-03-08T00:46:55.134Z,1.30
2023-03-08T00:51:56.548Z,1.20
2023-03-08T00:56:57.951Z,1.17
2023-03-08T01:02:00.711Z,1.25
2023-03-08T01:07:02.128Z,1.27
2023-03-08T01:12:03.775Z,1.40
2023-03-08T01:17:05.241Z,1.38
2023-03-08T01:22:06.605Z,1.77
2023-03-08T01:27:07.992Z,1.55
2023-03-08T01:32:10.327Z,1.90
2023-03-08T01:37:11.751Z,10.45
2023-03-08T01:42:13.144Z,9.88
2023-03-08T01:47:20.181Z,2.25
2023-03-08T01:52:36.740Z,1.40
2023-03-08T01:57:49.302Z,1.90
2023-03-08T02:02:52.995Z,2.40
2023-03-08T02:07:54.448Z,2.17
2023-03-08T02:12:55.828Z,2.17
2023-03-08T02:17:57.189Z,2.78
2023-03-08T02:23:18.954Z,2.63
2023-03-08T02:28:25.195Z,2.20
2023-03-08T02:33:26.659Z,2.60
2023-03-08T02:38:28.050Z,2.67
2023-03-08T02:43:29.454Z,2.95
2023-03-08T02:48:30.896Z,3.10
2023-03-08T02:53:32.218Z,3.20
2023-03-08T02:58:33.550Z,2.90
2023-03-08T03:03:34.892Z,2.92
2023-03-08T03:08:36.306Z,4.05
2023-03-08T03:13:37.982Z,3.60
2023-03-08T03:18:39.451Z,3.45
2023-03-08T03:23:41.353Z,3.70
2023-03-08T03:28:43.206Z,4.22
2023-03-08T03:33:44.915Z,4.38
2023-03-08T03:38:47.249Z,4.43
2023-03-08T03:43:49.480Z,4.07
2023-03-08T03:48:51.189Z,3.50
2023-03-08T03:53:52.591Z,4.43
2023-03-08T03:58:54.397Z,4.22
2023-03-08T04:03:57.000Z,4.72
2023-03-08T04:09:00.829Z,4.90
2023-03-08T04:14:03.036Z,4.72
2023-03-08T04:19:11.331Z,4.93
2023-03-08T04:24:12.674Z,4.72
2023-03-08T04:29:14.048Z,5.30
2023-03-08T04:34:15.365Z,5.70
2023-03-08T04:39:16.752Z,5.57
2023-03-08T04:44:18.069Z,6.60
2023-03-08T04:49:19.442Z,6.10
2023-03-08T04:54:20.791Z,6.43
2023-03-08T04:59:22.176Z,6.78
2023-03-08T05:04:23.617Z,6.57
2023-03-08T05:09:24.940Z,6.85
2023-03-08T05:14:26.369Z,6.53
2023-03-08T05:19:27.727Z,7.10
2023-03-08T05:24:29.089Z,7.78
2023-03-08T05:29:30.427Z,7.03
2023-03-08T05:34:31.792Z,7.85
2023-03-08T05:39:33.118Z,7.43
2023-03-08T05:44:35.935Z,6.65
2023-03-08T05:49:37.283Z,7.35
2023-03-08T05:54:39.529Z,7.43
2023-03-08T05:59:40.867Z,7.43
2023-03-08T06:04:42.223Z,8.70
2023-03-08T06:09:43.590Z,7.95
2023-03-08T06:14:44.931Z,8.07
2023-03-08T06:19:46.714Z,8.93
2023-03-08T06:24:50.774Z,9.38
2023-03-08T06:29:52.138Z,10.40
2023-03-08T06:34:53.461Z,10.50
2023-03-08T06:39:54.801Z,10.70
2023-03-08T06:44:56.160Z,10.40
2023-03-08T06:49:57.531Z,9.63
2023-03-08T06:54:58.845Z,10.88
2023-03-08T07:00:00.232Z,10.98
2023-03-08T07:05:01.683Z,9.98
2023-03-08T07:10:03.992Z,10.63
2023-03-08T07:15:14.735Z,10.30
2023-03-08T07:20:18.374Z,10.07
2023-03-08T07:25:21.189Z,10.25
2023-03-08T07:30:23.129Z,11.05
2023-03-08T07:35:24.544Z,10.40
2023-03-08T07:40:25.897Z,9.38
2023-03-08T07:45:27.264Z,8.80
2023-03-08T07:50:28.642Z,10.13
2023-03-08T07:55:30.157Z,9.95
2023-03-08T08:00:31.508Z,9.60
2023-03-08T08:05:35.491Z,9.95
2023-03-08T08:10:36.905Z,11.85
2023-03-08T08:15:38.311Z,8.07
2023-03-08T08:20:39.675Z,9.68
2023-03-08T08:25:41.023Z,9.82
2023-03-08T08:30:42.391Z,9.70
2023-03-08T08:35:43.808Z,10.30
2023-03-08T08:40:45.300Z,9.10
2023-03-08T08:45:49.104Z,11.07
2023-03-08T08:50:51.631Z,10.05
2023-03-08T08:55:53.037Z,9.38
2023-03-08T09:00:54.363Z,9.88
2023-03-08T09:05:57.987Z,9.85
2023-03-08T09:11:04.585Z,10.27
2023-03-08T09:16:06.403Z,10.57
2023-03-08T09:21:07.784Z,11.00
2023-03-08T09:26:09.257Z,10.80
2023-03-08T09:31:14.934Z,11.05
2023-03-08T09:36:16.662Z,11.23
2023-03-08T09:41:30.771Z,10.65
2023-03-08T09:46:46.205Z,10.65
2023-03-08T09:51:52.842Z,9.15
2023-03-08T09:56:56.198Z,10.52
2023-03-08T10:02:14.794Z,8.80
2023-03-08T10:07:45.452Z,9.10
2023-03-08T10:13:03.784Z,9.90
2023-03-08T10:18:24.772Z,9.98
2023-03-08T10:23:29.400Z,8.68
2023-03-08T10:28:30.742Z,10.15
2023-03-08T10:33:35.239Z,10.00
2023-03-08T10:38:37.284Z,10.45
2023-03-08T10:43:46.627Z,10.88
2023-03-08T10:48:48.351Z,10.63
2023-03-08T10:54:02.579Z,10.63
2023-03-08T10:59:06.229Z,11.23
2023-03-08T11:04:21.151Z,11.43
2023-03-08T11:09:31.264Z,11.93
2023-03-08T11:14:32.723Z,12.98
2023-03-08T11:19:49.130Z,13.82
2023-03-08T11:25:19.364Z,13.98
2023-03-08T11:31:05.236Z,13.32
2023-03-08T11:36:32.933Z,13.90
2023-03-08T11:41:51.536Z,13.95
2023-03-08T11:47:26.258Z,14.45
2023-03-08T11:52:44.718Z,13.80
2023-03-08T11:57:54.820Z,13.40
2023-03-08T12:03:03.204Z,13.93
2023-03-08T12:08:13.561Z,13.43
2023-03-08T12:13:22.690Z,11.27
2023-03-08T12:18:39.039Z,11.77
2023-03-08T12:24:05.330Z,10.40
2023-03-08T12:29:18.514Z,13.15
2023-03-08T12:34:38.184Z,13.90
2023-03-08T12:39:40.454Z,14.35
2023-03-08T12:44:42.825Z,13.50
2023-03-08T12:49:49.390Z,12.50
2023-03-08T12:55:19.250Z,13.77
2023-03-08T13:00:20.907Z,14.65
2023-03-08T13:05:33.209Z,14.95
2023-03-08T13:10:38.968Z,15.85
2023-03-08T13:15:40.428Z,14.35
2023-03-08T13:20:59.370Z,13.98
2023-03-08T13:26:06.545Z,13.45
2023-03-08T13:31:10.882Z,13.07
2023-03-08T13:36:32.712Z,14.55
2023-03-08T13:41:43.614Z,13.70
2023-03-08T13:46:46.354Z,11.30
2023-03-08T13:51:51.707Z,11.27
2023-03-08T13:56:54.289Z,11.70
2023-03-08T14:01:56.171Z,10.00
2023-03-08T14:06:59.951Z,13.05
2023-03-08T14:12:05.064Z,11.10
2023-03-08T14:17:06.704Z,10.75
2023-03-08T14:22:28.622Z,11.68
2023-03-08T14:27:40.926Z,10.48
2023-03-08T14:32:56.814Z,10.38
2023-03-08T14:37:58.862Z,9.45
2023-03-08T14:43:04.545Z,11.27
2023-03-08T14:48:18.227Z,10.35
2023-03-08T14:53:29.082Z,11.48
2023-03-08T14:58:32.672Z,9.90
2023-03-08T15:03:34.355Z,10.63
2023-03-08T15:08:36.190Z,11.52
2023-03-08T15:13:37.516Z,11.90
2023-03-08T15:18:38.951Z,12.82
2023-03-08T15:23:42.788Z,10.45
2023-03-08T15:28:44.147Z,12.38
2023-03-08T15:33:45.591Z,10.88
2023-03-08T15:38:47.003Z,11.00
2023-03-08T15:43:48.537Z,10.30
2023-03-08T15:48:51.104Z,10.20
2023-03-08T15:53:52.788Z,11.10
2023-03-08T15:58:55.220Z,12.70
2023-03-08T16:03:57.387Z,13.60
2023-03-08T16:08:59.068Z,11.70
2023-03-08T16:14:00.447Z,12.48
2023-03-08T16:19:02.568Z,12.35
2023-03-08T16:24:04.286Z,13.48
2023-03-08T16:29:05.695Z,14.18
2023-03-08T16:34:07.438Z,14.43
2023-03-08T16:39:09.226Z,13.85
2023-03-08T16:44:21.228Z,14.15
2023-03-08T16:49:28.031Z,13.95
2023-03-08T16:54:29.402Z,12.67
2023-03-08T16:59:31.189Z,14.68
2023-03-08T17:04:32.556Z,13.88
2023-03-08T17:09:35.473Z,13.45
2023-03-08T17:14:37.421Z,13.80
2023-03-08T17:19:40.860Z,13.80
2023-03-08T17:24:42.509Z,15.65
2023-03-08T17:29:43.876Z,16.02
2023-03-08T17:34:45.515Z,16.17
2023-03-08T17:39:46.878Z,18.63
2023-03-08T17:44:48.303Z,17.60
2023-03-08T17:49:49.684Z,14.65
2023-03-08T17:54:51.081Z,16.33
2023-03-08T17:59:53.590Z,15.25
2023-03-08T18:04:55.911Z,16.80
2023-03-08T18:09:57.373Z,15.48
2023-03-08T18:15:01.111Z,15.55
2023-03-08T18:20:05.269Z,16.52
2023-03-08T18:25:06.994Z,15.80
2023-03-08T18:30:09.575Z,16.77
2023-03-08T18:35:13.215Z,16.02
2023-03-08T18:40:15.030Z,15.98
2023-03-08T18:45:18.151Z,15.65
2023-03-08T18:50:19.852Z,15.98
2023-03-08T18:55:21.195Z,18.05
2023-03-08T19:00:22.737Z,18.38
2023-03-08T19:05:24.088Z,20.08
2023-03-08T19:10:25.460Z,20.60
2023-03-08T19:15:27.214Z,17.75
2023-03-08T19:20:29.366Z,20.08
2023-03-08T19:25:35.536Z,21.15
2023-03-08T19:30:37.031Z,21.50
2023-03-08T19:35:38.691Z,23.38
2023-03-08T19:40:43.551Z,23.60
2023-03-08T19:45:48.860Z,20.88
2023-03-08T19:50:50.343Z,24.35
2023-03-08T19:55:53.767Z,23.90
2023-03-08T20:01:02.912Z,20.60
2023-03-08T20:06:05.063Z,18.73
2023-03-08T20:11:06.545Z,20.25
2023-03-08T20:16:08.022Z,23.60
2023-03-08T20:21:09.549Z,21.90
2023-03-08T20:26:11.414Z,20.95
2023-03-08T20:31:13.423Z,19.83
2023-03-08T20:36:15.592Z,21.90
2023-03-08T20:41:19.821Z,20.15
2023-03-08T20:46:23.888Z,19.52
2023-03-08T20:51:25.795Z,20.83
2023-03-08T20:56:27.281Z,19.38
2023-03-08T21:01:31.549Z,20.73
2023-03-08T21:06:33.114Z,21.25
2023-03-08T21:11:34.585Z,20.35
2023-03-08T21:16:36.256Z,18.10
2023-03-08T21:21:40.639Z,19.40
2023-03-08T21:26:42.603Z,21.23
2023-03-08T21:31:48.447Z,19.50
2023-03-08T21:36:49.928Z,17.77
2023-03-08T21:41:52.918Z,17.60
2023-03-08T21:46:55.376Z,19.33
2023-03-08T21:51:58.198Z,18.60
2023-03-08T21:56:59.833Z,18.77
2023-03-08T22:02:01.374Z,18.77
2023-03-08T22:07:02.983Z,19.35
2023-03-08T22:12:04.569Z,19.70
2023-03-08T22:17:07.128Z,19.77
2023-03-08T22:22:10.331Z,20.35
2023-03-08T22:27:13.032Z,19.25
2023-03-08T22:32:15.541Z,19.55
2023-03-08T22:37:16.949Z,19.00
2023-03-08T22:42:18.478Z,19.90
2023-03-08T22:47:20.046Z,19.38
2023-03-08T22:52:21.451Z,19.35
2023-03-08T22:57:22.859Z,20.73
2023-03-08T23:02:24.728Z,22.05
2023-03-08T23:07:26.079Z,22.10
2023-03-08T23:12:27.415Z,19.27
2023-03-08T23:17:28.800Z,19.80
2023-03-08T23:22:30.168Z,24.27
2023-03-08T23:27:31.519Z,19.58
2023-03-08T23:32:33.101Z,21.92
2023-03-08T23:37:34.807Z,22.10
2023-03-08T23:42:36.735Z,20.63
2023-03-08T23:47:38.130Z,22.20
2023-03-08T23:52:39.449Z,19.27
2023-03-08T23:57:40.821Z,22.58
